Time;durP1;ratioP1;P1;durP2;ratioP2;P2;SDS_P1;SDS_P2;PMS_P1;PMS_P2;Temp;Humidity;BMP_temperature;BMP_pressure;BME280_temperature;BME280_humidity;BME280_pressure;Samples;Min_cycle;Max_cycle;Signal;HPM_P1;HPM_P2
2022/03/10 00:02:09;;;;;;;3.03;2.63;;;18.20;33.60;;;;;;5139093;27;20207;-64
2022/03/10 00:04:36;;;;;;;2.70;2.50;;;18.30;33.70;;;;;;5141784;27;20414;-64
2022/03/10 00:07:02;;;;;;;2.60;2.40;;;18.20;33.60;;;;;;5138527;27;20479;-59
2022/03/10 00:09:32;;;;;;;3.80;2.40;;;18.20;33.60;;;;;;5146079;27;20426;-64
2022/03/10 00:11:58;;;;;;;2.77;2.57;;;18.30;33.70;;;;;;5140870;27;20499;-63
2022/03/10 00:14:24;;;;;;;2.97;2.77;;;18.20;34.40;;;;;;5138777;27;20468;-64
2022/03/10 00:16:50;;;;;;;3.10;2.80;;;18.20;33.60;;;;;;5141502;27;20433;-65
2022/03/10 00:19:16;;;;;;;2.80;2.60;;;18.20;33.60;;;;;;5136280;27;20216;-64
2022/03/10 00:21:42;;;;;;;4.70;3.00;;;18.20;33.60;;;;;;5141613;27;20222;-64
2022/03/10 00:24:08;;;;;;;3.03;2.83;;;18.20;33.60;;;;;;5141516;27;20427;-64
2022/03/10 00:26:34;;;;;;;2.57;2.37;;;18.20;33.70;;;;;;5145637;27;20767;-64
2022/03/10 00:28:59;;;;;;;2.90;2.70;;;18.20;33.70;;;;;;5137684;27;20219;-64
2022/03/10 00:31:25;;;;;;;3.20;2.63;;;18.30;33.80;;;;;;5138555;27;20212;-63
2022/03/10 00:33:51;;;;;;;2.57;2.40;;;18.30;33.70;;;;;;5134862;27;20682;-64
2022/03/10 00:36:16;;;;;;;2.40;2.20;;;18.20;33.60;;;;;;5142061;27;21202;-64
2022/03/10 00:38:42;;;;;;;2.77;2.57;;;18.20;33.60;;;;;;5143434;27;20226;-65
2022/03/10 00:41:09;;;;;;;2.57;2.37;;;18.20;33.60;;;;;;5143315;27;20211;-64
2022/03/10 00:43:35;;;;;;;2.40;2.30;;;18.20;33.70;;;;;;5143227;27;20308;-64
2022/03/10 00:46:01;;;;;;;2.90;2.70;;;18.20;33.70;;;;;;5141323;27;20503;-63
2022/03/10 00:48:26;;;;;;;2.60;2.40;;;18.20;33.70;;;;;;5134387;27;20211;-64
2022/03/10 00:50:52;;;;;;;3.00;2.80;;;18.20;33.70;;;;;;5142807;27;20203;-65
2022/03/10 00:53:17;;;;;;;3.10;2.90;;;18.20;33.70;;;;;;5142933;27;20219;-64
2022/03/10 00:55:43;;;;;;;2.73;2.57;;;18.20;33.70;;;;;;5144909;27;20222;-63
2022/03/10 00:58:09;;;;;;;2.90;2.70;;;18.20;33.60;;;;;;5136142;27;20303;-62
2022/03/10 01:00:34;;;;;;;3.10;2.90;;;18.20;33.70;;;;;;5136542;27;20227;-67
2022/03/10 01:03:00;;;;;;;3.30;3.00;;;18.20;33.60;;;;;;5139511;27;20187;-68
2022/03/10 01:05:25;;;;;;;3.03;2.83;;;18.20;33.70;;;;;;5141132;27;20267;-67
2022/03/10 01:07:52;;;;;;;2.70;2.60;;;18.20;33.70;;;;;;5143239;27;20184;-67
2022/03/10 01:10:18;;;;;;;3.07;2.70;;;18.20;33.60;;;;;;5142159;27;20214;-67
2022/03/10 01:12:45;;;;;;;3.03;2.83;;;18.20;33.70;;;;;;5143590;27;20993;-66
2022/03/10 01:15:17;;;;;;;2.73;2.53;;;18.20;33.70;;;;;;5139529;27;20980;-66
2022/03/10 01:17:43;;;;;;;3.07;2.87;;;18.20;33.70;;;;;;5134848;27;20439;-65
2022/03/10 01:20:09;;;;;;;2.70;2.50;;;18.20;33.60;;;;;;5143664;27;20456;-65
2022/03/10 01:22:35;;;;;;;2.87;2.67;;;18.20;33.60;;;;;;5137641;27;20480;-66
2022/03/10 01:25:01;;;;;;;3.03;2.83;;;18.20;33.70;;;;;;5137291;27;20460;-71
2022/03/10 01:27:27;;;;;;;3.30;3.10;;;18.20;33.70;;;;;;5137375;27;20212;-71
2022/03/10 01:29:52;;;;;;;3.20;3.00;;;18.20;33.70;;;;;;5141779;27;20431;-69
2022/03/10 01:32:18;;;;;;;2.73;2.53;;;18.20;33.60;;;;;;5137072;27;20231;-67
2022/03/10 01:34:43;;;;;;;3.27;2.97;;;18.20;33.70;;;;;;5136586;27;20229;-67
2022/03/10 01:37:09;;;;;;;2.40;2.30;;;18.20;33.70;;;;;;5136640;27;20216;-66
2022/03/10 01:39:35;;;;;;;2.83;2.63;;;18.20;33.70;;;;;;5135939;27;20289;-67
2022/03/10 01:42:03;;;;;;;2.70;2.50;;;18.20;33.70;;;;;;5142630;27;20255;-66
2022/03/10 01:44:29;;;;;;;2.63;2.43;;;18.20;33.70;;;;;;5136957;27;20222;-63
2022/03/10 01:46:54;;;;;;;2.57;2.37;;;18.20;33.70;;;;;;5138254;27;20419;-62
2022/03/10 01:49:20;;;;;;;3.27;3.07;;;18.20;33.70;;;;;;5139091;27;20226;-66
2022/03/10 01:51:46;;;;;;;2.77;2.57;;;18.20;33.70;;;;;;5142661;27;20218;-66
2022/03/10 01:54:12;;;;;;;2.70;2.50;;;18.20;33.60;;;;;;5142647;27;20296;-66
2022/03/10 01:56:38;;;;;;;2.93;2.73;;;18.20;33.60;;;;;;5136463;27;20439;-66
2022/03/10 01:59:04;;;;;;;2.70;2.50;;;18.20;33.70;;;;;;5135875;27;20227;-66
2022/03/10 02:01:31;;;;;;;2.80;2.60;;;18.20;33.70;;;;;;5135902;27;20459;-64
2022/03/10 02:03:57;;;;;;;3.40;3.20;;;18.20;33.80;;;;;;5138432;27;20414;-65
2022/03/10 02:06:23;;;;;;;3.10;2.90;;;18.20;33.70;;;;;;5140735;27;20409;-66
2022/03/10 02:11:36;;;;;;;2.53;2.33;;;18.20;33.70;;;;;;5146454;27;20458;-66
2022/03/10 02:17:19;;;;;;;2.80;2.60;;;18.20;33.70;;;;;;5139418;27;20406;-66
2022/03/10 02:19:31;;;;;;;2.73;2.53;;;18.20;34.50;;;;;;5137944;27;20479;-66
2022/03/10 02:22:05;;;;;;;3.27;2.97;;;18.20;33.70;;;;;;5138129;27;20492;-64
2022/03/10 02:24:31;;;;;;;4.03;2.40;;;18.20;33.70;;;;;;5139461;27;20218;-66
2022/03/10 02:26:56;;;;;;;2.73;2.53;;;18.20;33.70;;;;;;5137999;27;20444;-66
2022/03/10 02:29:22;;;;;;;2.50;2.40;;;18.20;33.70;;;;;;5140781;27;20216;-66
2022/03/10 02:31:47;;;;;;;2.83;2.40;;;18.20;34.10;;;;;;5140762;27;20707;-67
2022/03/10 02:34:13;;;;;;;2.87;2.67;;;18.20;33.70;;;;;;5142855;27;20227;-64
2022/03/10 02:36:38;;;;;;;2.90;2.67;;;18.20;33.70;;;;;;5137649;27;20572;-65
2022/03/10 02:39:04;;;;;;;2.30;2.20;;;18.20;33.70;;;;;;5137727;27;20212;-66
2022/03/10 02:41:30;;;;;;;3.00;2.80;;;18.20;33.70;;;;;;5138024;27;20212;-66
2022/03/10 02:43:55;;;;;;;2.60;2.40;;;18.20;33.70;;;;;;5139762;27;20651;-66
2022/03/10 02:46:21;;;;;;;3.23;2.93;;;18.20;33.70;;;;;;5133674;27;20232;-65
2022/03/10 02:48:46;;;;;;;2.70;2.50;;;18.20;33.70;;;;;;5135407;27;20223;-67
2022/03/10 02:51:12;;;;;;;2.90;2.70;;;18.20;33.80;;;;;;5139480;27;20207;-65
2022/03/10 02:53:38;;;;;;;2.90;2.70;;;18.20;33.70;;;;;;5144947;27;20207;-66
2022/03/10 02:56:03;;;;;;;2.40;2.20;;;18.20;33.70;;;;;;5141354;27;20342;-65
2022/03/10 02:58:29;;;;;;;2.43;2.13;;;18.20;33.70;;;;;;5146050;27;20551;-65
2022/03/10 03:00:55;;;;;;;2.50;2.30;;;18.20;33.70;;;;;;5139225;27;20250;-63
2022/03/10 03:03:20;;;;;;;2.67;2.57;;;18.20;33.70;;;;;;5146734;27;20222;-66
2022/03/10 03:05:46;;;;;;;2.30;2.20;;;18.20;33.70;;;;;;5140517;27;20230;-67
2022/03/10 03:08:11;;;;;;;2.30;2.10;;;18.10;33.70;;;;;;5137220;27;20691;-66
2022/03/10 03:10:37;;;;;;;2.70;2.50;;;18.20;33.80;;;;;;5146144;27;20212;-66
2022/03/10 03:13:05;;;;;;;2.77;2.53;;;18.20;33.70;;;;;;5139802;27;20283;-65
2022/03/10 03:15:30;;;;;;;2.50;2.37;;;18.20;33.70;;;;;;5139696;27;20228;-66
2022/03/10 03:17:57;;;;;;;2.13;2.03;;;18.20;33.70;;;;;;5140765;27;20437;-66
2022/03/10 03:20:23;;;;;;;2.50;2.30;;;18.10;33.70;;;;;;5141903;27;20212;-66
2022/03/10 03:22:49;;;;;;;2.70;2.50;;;18.10;33.70;;;;;;5147337;27;20944;-66
2022/03/10 03:25:14;;;;;;;2.80;2.60;;;18.10;33.70;;;;;;5146622;27;20669;-66
2022/03/10 03:27:44;;;;;;;2.50;2.40;;;18.10;33.70;;;;;;5140326;27;20219;-66
2022/03/10 03:30:11;;;;;;;2.97;2.77;;;18.20;34.60;;;;;;5137556;27;20214;-64
2022/03/10 03:32:36;;;;;;;2.63;2.43;;;18.20;33.80;;;;;;5139200;27;20579;-64
2022/03/10 03:35:02;;;;;;;2.80;2.60;;;18.20;33.70;;;;;;5136953;27;20537;-66
2022/03/10 03:37:28;;;;;;;2.70;2.50;;;18.10;33.70;;;;;;5140795;27;20215;-65
2022/03/10 03:39:53;;;;;;;2.63;2.43;;;18.10;33.70;;;;;;5134051;27;20219;-65
2022/03/10 03:42:19;;;;;;;3.30;3.10;;;18.20;33.80;;;;;;5143763;27;20309;-65
2022/03/10 03:44:45;;;;;;;3.20;3.00;;;18.20;33.70;;;;;;5138996;27;20220;-66
2022/03/10 03:47:10;;;;;;;2.53;2.33;;;18.10;33.70;;;;;;5148325;27;20204;-60
2022/03/10 03:49:36;;;;;;;2.73;2.53;;;18.20;33.80;;;;;;5141937;27;20228;-66
2022/03/10 03:52:01;;;;;;;3.17;2.10;;;18.20;33.80;;;;;;5140864;27;20215;-65
2022/03/10 03:54:27;;;;;;;2.00;1.90;;;18.20;33.70;;;;;;5139743;27;20242;-72
2022/03/10 03:56:53;;;;;;;2.67;2.57;;;18.10;33.70;;;;;;5134825;27;20215;-69
2022/03/10 03:59:20;;;;;;;3.20;3.00;;;18.20;33.70;;;;;;5141677;27;20222;-66
2022/03/10 04:01:46;;;;;;;2.30;2.20;;;18.20;33.70;;;;;;5141360;27;20225;-66
2022/03/10 04:04:11;;;;;;;2.97;2.77;;;18.10;33.70;;;;;;5136569;27;20450;-67
2022/03/10 04:06:37;;;;;;;2.50;2.30;;;18.20;33.70;;;;;;5144553;27;20211;-66
2022/03/10 04:09:02;;;;;;;2.67;2.50;;;18.20;33.70;;;;;;5145703;27;20415;-66
2022/03/10 04:11:29;;;;;;;2.57;2.20;;;18.10;33.70;;;;;;5147009;27;20297;-66
2022/03/10 04:13:54;;;;;;;2.43;2.23;;;18.20;33.70;;;;;;5141580;27;20220;-68
2022/03/10 04:16:20;;;;;;;2.60;2.50;;;18.10;33.60;;;;;;5140602;27;20455;-65
2022/03/10 04:18:45;;;;;;;2.50;2.40;;;18.20;33.70;;;;;;5143263;27;20231;-67
2022/03/10 04:21:11;;;;;;;2.33;2.23;;;18.10;33.60;;;;;;5143512;27;20212;-67
2022/03/10 04:23:37;;;;;;;2.70;2.50;;;18.10;33.60;;;;;;5140143;27;20276;-67
2022/03/10 04:26:02;;;;;;;2.60;2.50;;;18.10;33.70;;;;;;5144853;27;20291;-66
2022/03/10 04:28:28;;;;;;;2.90;2.70;;;18.10;33.70;;;;;;5138976;27;20719;-66
2022/03/10 04:30:54;;;;;;;2.37;2.27;;;18.10;33.70;;;;;;5139593;27;20220;-65
2022/03/10 04:33:19;;;;;;;3.50;3.20;;;18.10;33.70;;;;;;5141182;27;20233;-66
2022/03/10 04:35:45;;;;;;;2.63;2.43;;;18.10;33.70;;;;;;5141311;27;20231;-66
2022/03/10 04:38:11;;;;;;;2.43;2.23;;;18.20;33.80;;;;;;5140343;27;20223;-65
2022/03/10 04:40:37;;;;;;;3.97;2.60;;;18.10;33.70;;;;;;5141261;27;20219;-65
2022/03/10 04:43:03;;;;;;;2.37;2.17;;;18.10;33.70;;;;;;5139617;27;20231;-66
2022/03/10 04:45:29;;;;;;;3.03;2.83;;;18.10;33.70;;;;;;5144302;27;20417;-67
2022/03/10 04:47:55;;;;;;;2.70;2.20;;;18.10;33.70;;;;;;5139578;27;20422;-67
2022/03/10 04:50:20;;;;;;;2.20;2.07;;;18.10;33.70;;;;;;5140478;27;20639;-66
2022/03/10 04:52:46;;;;;;;2.37;2.27;;;18.10;33.70;;;;;;5136080;27;20240;-65
2022/03/10 04:55:13;;;;;;;3.13;2.70;;;18.10;33.70;;;;;;5138469;27;20295;-65
2022/03/10 04:57:39;;;;;;;2.37;2.17;;;18.10;33.70;;;;;;5145795;27;20219;-65
2022/03/10 05:00:18;;;;;;;5.23;3.03;;;18.10;33.70;;;;;;5138778;27;20914;-63
2022/03/10 05:02:45;;;;;;;2.60;2.40;;;18.10;33.70;;;;;;5123006;27;20795;-66
2022/03/10 05:05:12;;;;;;;2.90;2.70;;;18.10;33.70;;;;;;5138648;27;20422;-66
2022/03/10 05:07:38;;;;;;;2.57;2.43;;;18.10;33.70;;;;;;5136806;27;20456;-66
2022/03/10 05:10:04;;;;;;;2.50;2.40;;;18.10;33.60;;;;;;5141014;27;20442;-66
2022/03/10 05:12:30;;;;;;;2.00;1.90;;;18.10;33.70;;;;;;5140988;27;20210;-66
2022/03/10 05:14:55;;;;;;;2.43;2.23;;;18.10;33.70;;;;;;5144646;27;20417;-66
2022/03/10 05:17:23;;;;;;;2.97;2.77;;;18.20;33.70;;;;;;5141736;27;20222;-66
2022/03/10 05:19:52;;;;;;;3.07;2.87;;;18.20;33.70;;;;;;5121705;27;20657;-66
2022/03/10 05:22:18;;;;;;;3.07;2.93;;;18.10;33.60;;;;;;5136761;27;20439;-66
2022/03/10 05:24:44;;;;;;;2.40;2.20;;;18.20;33.60;;;;;;5136589;27;20475;-67
2022/03/10 05:27:09;;;;;;;2.60;2.50;;;18.20;33.60;;;;;;5140536;27;20545;-66
2022/03/10 05:29:40;;;;;;;2.43;2.33;;;18.20;33.60;;;;;;5143157;27;20219;-64
2022/03/10 05:32:10;;;;;;;2.40;2.23;;;18.20;33.60;;;;;;5138180;27;20231;-65
2022/03/10 05:34:36;;;;;;;2.83;2.63;;;18.20;33.50;;;;;;5139205;27;20486;-66
2022/03/10 05:37:02;;;;;;;2.73;2.43;;;18.20;33.50;;;;;;5136776;27;20435;-66
2022/03/10 05:39:28;;;;;;;2.90;2.70;;;18.20;33.60;;;;;;5142668;27;20502;-66
2022/03/10 05:41:54;;;;;;;2.50;2.40;;;18.20;33.50;;;;;;5142275;27;20306;-67
2022/03/10 05:44:19;;;;;;;2.47;2.37;;;18.20;33.50;;;;;;5141915;27;20219;-65
2022/03/10 05:46:45;;;;;;;2.57;2.33;;;18.20;33.50;;;;;;5138062;27;20231;-67
2022/03/10 05:49:10;;;;;;;2.60;2.43;;;18.20;33.50;;;;;;5141027;27;20651;-67
2022/03/10 05:51:36;;;;;;;2.60;2.40;;;18.30;33.60;;;;;;5141659;27;20225;-65
2022/03/10 05:54:03;;;;;;;3.60;2.53;;;18.20;33.50;;;;;;5135142;27;20723;-65
2022/03/10 05:56:29;;;;;;;2.67;2.50;;;18.20;33.40;;;;;;5135322;27;20246;-63
2022/03/10 05:58:54;;;;;;;2.73;2.53;;;18.30;33.50;;;;;;5140068;27;20543;-66
2022/03/10 06:01:20;;;;;;;3.30;2.27;;;18.30;33.50;;;;;;5133350;27;20561;-65
2022/03/10 06:03:45;;;;;;;2.70;2.50;;;18.30;33.50;;;;;;5139865;27;20223;-66
2022/03/10 06:06:13;;;;;;;2.33;2.23;;;18.30;33.50;;;;;;5135849;27;20214;-67
2022/03/10 06:08:38;;;;;;;2.70;2.50;;;18.30;33.40;;;;;;5138517;27;20230;-66
2022/03/10 06:11:04;;;;;;;2.50;2.30;;;18.30;33.50;;;;;;5133875;27;20756;-66
2022/03/10 06:13:30;;;;;;;3.10;2.90;;;18.30;33.50;;;;;;5139253;27;20671;-71
2022/03/10 06:15:56;;;;;;;2.80;2.60;;;18.30;33.50;;;;;;5140385;27;20744;-68
2022/03/10 06:18:21;;;;;;;2.70;2.50;;;18.30;33.40;;;;;;5140656;27;20235;-66
2022/03/10 06:20:47;;;;;;;2.57;2.40;;;18.30;33.40;;;;;;5140273;27;20203;-70
2022/03/10 06:23:12;;;;;;;2.23;2.13;;;18.30;33.40;;;;;;5141806;27;20218;-66
2022/03/10 06:25:38;;;;;;;2.67;2.47;;;18.30;33.40;;;;;;5133568;27;20228;-64
2022/03/10 06:28:04;;;;;;;2.63;2.50;;;18.30;33.30;;;;;;5140943;27;21481;-65
2022/03/10 06:30:30;;;;;;;2.80;2.60;;;18.30;33.30;;;;;;5141685;27;20396;-64
2022/03/10 06:32:55;;;;;;;2.70;2.50;;;18.30;33.30;;;;;;5144478;27;20223;-65
2022/03/10 06:35:21;;;;;;;2.77;2.57;;;18.30;33.30;;;;;;5140584;27;20223;-64
2022/03/10 06:37:47;;;;;;;2.27;2.17;;;18.30;33.30;;;;;;5141786;27;20211;-64
2022/03/10 06:40:13;;;;;;;2.70;2.50;;;18.30;33.30;;;;;;5146131;27;20298;-66
2022/03/10 06:42:38;;;;;;;2.60;2.40;;;18.30;33.30;;;;;;5144145;27;20344;-65
2022/03/10 06:45:04;;;;;;;2.63;2.43;;;18.30;33.30;;;;;;5145488;27;20226;-66
2022/03/10 06:47:30;;;;;;;2.90;2.70;;;18.30;33.30;;;;;;5141065;27;20354;-65
2022/03/10 06:49:56;;;;;;;2.50;2.30;;;18.30;33.30;;;;;;5142011;27;20563;-65
2022/03/10 06:52:21;;;;;;;3.10;2.30;;;18.30;33.30;;;;;;5123788;27;20777;-65
2022/03/10 06:54:47;;;;;;;2.80;2.60;;;18.30;33.30;;;;;;5150375;27;20354;-66
2022/03/10 06:57:13;;;;;;;2.83;2.63;;;18.30;33.30;;;;;;5143837;27;20221;-63
2022/03/10 06:59:39;;;;;;;2.73;2.53;;;18.30;33.30;;;;;;5138021;27;20284;-65
2022/03/10 07:02:04;;;;;;;2.60;2.40;;;18.30;33.30;;;;;;5140539;27;20216;-67
2022/03/10 07:04:31;;;;;;;3.00;2.80;;;18.30;33.30;;;;;;5143769;27;20226;-64
2022/03/10 07:06:56;;;;;;;2.37;2.27;;;18.30;33.30;;;;;;5145094;27;20234;-60
2022/03/10 07:09:22;;;;;;;2.53;2.33;;;18.40;33.40;;;;;;5138234;27;20439;-67
2022/03/10 07:11:47;;;;;;;2.90;2.70;;;18.30;33.30;;;;;;5145926;27;20246;-68
2022/03/10 07:14:14;;;;;;;2.63;2.50;;;18.40;33.30;;;;;;5122269;27;20219;-66
2022/03/10 07:16:40;;;;;;;2.90;2.70;;;18.40;33.20;;;;;;5140168;27;20741;-66
2022/03/10 07:19:09;;;;;;;3.30;3.00;;;18.40;33.30;;;;;;5140924;27;20414;-66
2022/03/10 07:21:35;;;;;;;3.27;2.97;;;18.40;33.20;;;;;;5141603;27;20944;-66
2022/03/10 07:24:00;;;;;;;2.43;2.23;;;18.40;33.20;;;;;;5147401;27;20800;-66
2022/03/10 07:26:26;;;;;;;2.83;2.63;;;18.40;33.20;;;;;;5147462;27;20469;-66
2022/03/10 07:28:52;;;;;;;2.67;2.50;;;18.40;33.30;;;;;;5143991;27;20263;-66
2022/03/10 07:31:18;;;;;;;3.30;3.10;;;18.40;33.30;;;;;;5146610;27;20213;-66
2022/03/10 07:33:44;;;;;;;3.53;3.33;;;18.40;33.20;;;;;;5146009;27;20852;-65
2022/03/10 07:36:10;;;;;;;3.60;2.70;;;18.40;33.20;;;;;;5142629;27;20220;-65
2022/03/10 07:38:35;;;;;;;3.87;2.97;;;18.40;33.30;;;;;;5145674;27;21165;-66
2022/03/10 07:41:01;;;;;;;2.73;2.50;;;18.40;33.30;;;;;;5144415;27;20603;-66
2022/03/10 07:43:27;;;;;;;2.87;2.60;;;18.40;33.30;;;;;;5147239;27;20294;-66
2022/03/10 07:45:52;;;;;;;3.70;2.70;;;18.40;33.30;;;;;;5141187;27;20230;-66
2022/03/10 07:48:19;;;;;;;3.50;2.93;;;18.40;33.30;;;;;;5148451;27;20272;-66
2022/03/10 07:50:45;;;;;;;3.23;2.93;;;18.40;33.20;;;;;;5139113;27;20212;-65
2022/03/10 07:53:10;;;;;;;2.80;2.70;;;18.40;33.30;;;;;;5145066;27;20936;-65
2022/03/10 07:55:36;;;;;;;2.67;2.47;;;18.40;33.30;;;;;;5142945;27;20243;-66
2022/03/10 07:58:02;;;;;;;2.93;2.73;;;18.40;33.30;;;;;;5144094;27;20260;-65
2022/03/10 08:00:28;;;;;;;6.50;3.13;;;18.40;33.30;;;;;;5141357;27;20403;-66
2022/03/10 08:02:53;;;;;;;2.73;2.53;;;18.40;33.10;;;;;;5137442;27;20212;-65
2022/03/10 08:05:19;;;;;;;6.80;3.00;;;18.50;33.20;;;;;;5146605;27;20311;-66
2022/03/10 08:07:47;;;;;;;3.47;3.20;;;18.50;33.10;;;;;;5140067;27;20227;-65
2022/03/10 08:10:13;;;;;;;2.90;2.57;;;18.50;33.10;;;;;;5146768;27;20216;-65
2022/03/10 08:12:38;;;;;;;2.70;2.50;;;18.50;33.20;;;;;;5141695;27;20452;-67
2022/03/10 08:15:06;;;;;;;4.27;2.83;;;18.50;33.30;;;;;;5126406;27;20231;-66
2022/03/10 08:17:31;;;;;;;3.10;2.80;;;18.50;33.20;;;;;;5144344;27;20219;-64
2022/03/10 08:19:57;;;;;;;2.77;2.33;;;18.50;33.10;;;;;;5146425;27;20399;-63
2022/03/10 08:22:24;;;;;;;2.47;2.33;;;18.50;33.10;;;;;;5145022;27;20283;-63
2022/03/10 08:24:50;;;;;;;3.70;2.70;;;18.50;33.20;;;;;;5140783;27;20218;-63
2022/03/10 08:27:16;;;;;;;3.30;3.00;;;18.50;33.10;;;;;;5147173;27;20431;-65
2022/03/10 08:29:43;;;;;;;2.63;2.43;;;18.50;33.20;;;;;;5142268;27;20226;-66
2022/03/10 08:32:09;;;;;;;4.07;3.40;;;18.50;33.10;;;;;;5142551;27;20224;-66
2022/03/10 08:34:38;;;;;;;2.67;2.47;;;18.50;33.10;;;;;;5137657;27;21181;-65
2022/03/10 08:37:05;;;;;;;2.87;2.50;;;18.50;33.10;;;;;;5133743;27;20676;-66
2022/03/10 08:39:30;;;;;;;6.40;2.97;;;18.50;33.10;;;;;;5143853;27;20435;-65
2022/03/10 08:41:56;;;;;;;3.23;2.93;;;18.50;33.10;;;;;;5141258;27;20457;-70
2022/03/10 08:44:22;;;;;;;2.77;2.60;;;18.50;33.10;;;;;;5141323;27;20291;-64
2022/03/10 08:46:48;;;;;;;3.30;3.10;;;18.50;33.20;;;;;;5136036;27;20211;-66
2022/03/10 08:49:14;;;;;;;3.10;2.90;;;18.50;33.20;;;;;;5142783;27;20310;-63
2022/03/10 08:51:40;;;;;;;6.47;3.10;;;18.50;33.20;;;;;;5141779;27;20234;-66
2022/03/10 08:54:06;;;;;;;3.00;2.80;;;18.50;33.20;;;;;;5145412;27;20426;-65
2022/03/10 08:56:32;;;;;;;2.57;2.40;;;18.50;33.20;;;;;;5141394;27;20764;-70
2022/03/10 08:58:57;;;;;;;3.27;3.07;;;18.50;33.20;;;;;;5145130;27;20571;-66
2022/03/10 09:01:23;;;;;;;3.37;2.83;;;18.50;33.20;;;;;;5139745;27;20294;-65
2022/03/10 09:03:48;;;;;;;2.77;2.57;;;18.50;33.50;;;;;;5137193;27;21119;-66
2022/03/10 09:06:15;;;;;;;3.40;2.93;;;18.50;33.20;;;;;;5141969;27;20227;-66
2022/03/10 09:08:42;;;;;;;2.97;2.77;;;18.50;33.20;;;;;;5140069;27;20615;-66
2022/03/10 09:11:08;;;;;;;2.93;2.73;;;18.50;33.20;;;;;;5139115;27;20481;-66
2022/03/10 09:13:33;;;;;;;3.30;3.00;;;18.50;33.20;;;;;;5140312;27;20425;-64
2022/03/10 09:15:59;;;;;;;2.60;2.50;;;18.50;33.20;;;;;;5141714;27;20229;-67
2022/03/10 09:18:25;;;;;;;3.10;2.90;;;18.50;33.30;;;;;;5141127;27;20289;-67
2022/03/10 09:20:50;;;;;;;3.00;2.77;;;18.50;33.30;;;;;;5144040;27;20209;-65
2022/03/10 09:23:16;;;;;;;3.07;2.90;;;18.50;33.30;;;;;;5119371;27;20218;-66
2022/03/10 09:25:41;;;;;;;4.33;3.47;;;18.50;33.30;;;;;;5140360;27;20264;-66
2022/03/10 09:28:07;;;;;;;2.83;2.63;;;18.50;33.30;;;;;;5141574;27;20546;-65
2022/03/10 09:30:33;;;;;;;3.10;2.90;;;18.50;33.30;;;;;;5143343;27;20273;-65
2022/03/10 09:32:58;;;;;;;6.40;2.80;;;18.50;33.40;;;;;;5141337;27;20696;-63
2022/03/10 09:35:25;;;;;;;3.37;3.07;;;18.50;34.20;;;;;;5146977;27;20275;-64
2022/03/10 09:37:52;;;;;;;3.00;2.80;;;18.50;33.40;;;;;;5140961;27;20212;-65
2022/03/10 09:40:19;;;;;;;3.17;2.87;;;18.50;33.40;;;;;;5136006;27;20498;-65
2022/03/10 09:42:49;;;;;;;2.77;2.57;;;18.50;33.40;;;;;;5137311;27;20427;-65
2022/03/10 09:45:16;;;;;;;3.40;3.10;;;18.50;33.30;;;;;;5138981;27;20504;-65
2022/03/10 09:47:44;;;;;;;2.83;2.60;;;18.50;33.40;;;;;;5138264;27;20444;-66
2022/03/10 09:50:14;;;;;;;3.03;2.90;;;18.50;33.30;;;;;;5142536;27;20421;-64
2022/03/10 09:52:42;;;;;;;3.23;2.90;;;18.50;33.20;;;;;;5140176;27;20787;-64
2022/03/10 09:55:09;;;;;;;2.70;2.47;;;18.50;33.30;;;;;;5131963;27;20438;-65
2022/03/10 09:57:38;;;;;;;3.20;3.00;;;18.50;33.30;;;;;;5116141;27;20939;-64
2022/03/10 10:00:05;;;;;;;3.13;2.63;;;18.50;33.20;;;;;;5139870;27;20576;-65
2022/03/10 10:02:31;;;;;;;4.73;3.00;;;18.50;33.30;;;;;;5142550;27;20413;-65
2022/03/10 10:04:56;;;;;;;4.27;3.03;;;18.50;33.30;;;;;;5139443;27;20454;-64
2022/03/10 10:07:27;;;;;;;2.70;2.50;;;18.50;33.40;;;;;;5123758;27;20298;-64
2022/03/10 10:09:56;;;;;;;2.80;2.60;;;18.50;33.40;;;;;;5138979;27;20561;-64
2022/03/10 10:12:30;;;;;;;3.67;3.00;;;18.50;33.40;;;;;;5136558;27;20431;-65
2022/03/10 10:14:58;;;;;;;5.77;3.53;;;18.50;33.40;;;;;;5141609;27;20514;-66
2022/03/10 10:17:29;;;;;;;7.73;3.30;;;18.50;33.30;;;;;;5141533;27;20407;-64
2022/03/10 10:19:58;;;;;;;2.87;2.67;;;18.60;33.20;;;;;;5138977;27;20421;-68
2022/03/10 10:22:26;;;;;;;4.13;3.13;;;18.60;33.10;;;;;;5138797;27;20428;-70
2022/03/10 10:24:57;;;;;;;2.90;2.43;;;18.60;33.10;;;;;;5136696;27;20902;-66
2022/03/10 10:27:29;;;;;;;2.50;2.30;;;18.60;33.30;;;;;;5125863;27;20496;-68
2022/03/10 10:29:56;;;;;;;3.00;2.70;;;18.50;33.30;;;;;;5144101;27;20453;-68
2022/03/10 10:32:31;;;;;;;2.93;2.73;;;18.50;33.80;;;;;;5134066;27;20435;-67
2022/03/10 10:35:07;;;;;;;4.00;2.77;;;18.50;33.50;;;;;;5146028;27;20937;-67
2022/03/10 10:37:34;;;;;;;3.37;2.90;;;18.50;33.50;;;;;;5146395;27;20400;-66
2022/03/10 10:39:59;;;;;;;4.63;2.60;;;18.50;33.50;;;;;;5139675;27;20438;-66
2022/03/10 10:42:30;;;;;;;3.80;3.17;;;18.40;33.50;;;;;;5137706;27;20440;-67
2022/03/10 10:44:58;;;;;;;4.77;2.90;;;18.40;33.50;;;;;;5139444;27;20697;-67
2022/03/10 10:47:26;;;;;;;3.17;2.97;;;18.40;33.60;;;;;;5135580;27;20406;-67
2022/03/10 10:50:00;;;;;;;3.30;3.00;;;18.40;33.60;;;;;;5136046;27;20512;-66
2022/03/10 10:52:36;;;;;;;3.13;2.93;;;18.40;33.50;;;;;;5141098;27;21122;-66
2022/03/10 10:55:11;;;;;;;3.80;3.50;;;18.40;33.60;;;;;;5136981;27;20451;-65
2022/03/10 10:57:38;;;;;;;4.53;3.00;;;18.40;33.60;;;;;;5141758;27;20418;-65
2022/03/10 11:00:08;;;;;;;2.70;2.50;;;18.40;33.60;;;;;;5146127;27;20773;-67
2022/03/10 11:02:35;;;;;;;3.70;3.40;;;18.40;33.60;;;;;;5141059;27;20490;-69
2022/03/10 11:05:03;;;;;;;4.13;3.53;;;18.40;33.50;;;;;;5138643;27;20495;-63
2022/03/10 11:07:29;;;;;;;4.83;3.10;;;18.40;33.60;;;;;;5140746;27;20452;-72
2022/03/10 11:09:54;;;;;;;13.43;4.07;;;18.40;33.40;;;;;;5135295;27;20443;-67
2022/03/10 11:12:20;;;;;;;4.63;4.13;;;18.50;33.40;;;;;;5138789;27;20436;-64
2022/03/10 11:14:47;;;;;;;4.00;3.50;;;18.50;34.10;;;;;;5117070;27;20273;-63
2022/03/10 11:17:15;;;;;;;3.40;3.10;;;18.50;33.30;;;;;;5145623;27;20462;-62
2022/03/10 11:19:49;;;;;;;3.17;2.87;;;18.50;33.30;;;;;;5142065;27;20463;-64
2022/03/10 11:22:35;;;;;;;3.13;2.93;;;18.50;33.30;;;;;;5148486;27;20434;-63
2022/03/10 11:25:07;;;;;;;2.80;2.60;;;18.50;33.30;;;;;;5143200;27;20410;-64
2022/03/10 11:27:38;;;;;;;3.13;2.93;;;18.50;33.50;;;;;;5142624;27;20442;-62
2022/03/10 11:30:06;;;;;;;3.30;3.10;;;18.40;33.40;;;;;;5141826;27;20939;-64
2022/03/10 11:32:32;;;;;;;2.83;2.63;;;18.40;33.50;;;;;;5139269;27;20463;-64
2022/03/10 11:35:00;;;;;;;2.70;2.50;;;18.40;33.50;;;;;;5144645;27;20472;-64
2022/03/10 11:37:42;;;;;;;7.43;3.13;;;18.40;33.50;;;;;;5149010;27;20544;-63
2022/03/10 11:40:13;;;;;;;3.10;2.80;;;18.50;33.60;;;;;;5142593;27;20452;-63
2022/03/10 11:42:39;;;;;;;2.90;2.70;;;18.40;33.60;;;;;;5143195;27;20443;-63
2022/03/10 11:45:17;;;;;;;3.40;3.20;;;18.40;33.70;;;;;;5143195;27;20443;-63
2022/03/10 11:47:44;;;;;;;7.37;2.60;;;18.40;33.70;;;;;;5140990;27;20447;-63
2022/03/10 11:50:24;;;;;;;3.10;2.90;;;18.40;33.70;;;;;;5142266;27;20485;-63
2022/03/10 11:52:53;;;;;;;2.70;2.50;;;18.40;33.70;;;;;;5144475;27;20414;-64
2022/03/10 11:55:21;;;;;;;2.97;2.77;;;18.40;33.70;;;;;;5144713;27;20551;-64
2022/03/10 11:57:53;;;;;;;5.00;2.97;;;18.40;33.70;;;;;;5137278;27;20921;-64
2022/03/10 12:00:22;;;;;;;3.00;2.80;;;18.40;33.80;;;;;;5141704;27;20514;-63
2022/03/10 12:02:57;;;;;;;3.13;2.80;;;18.40;33.80;;;;;;5140813;27;20440;-63
2022/03/10 12:05:24;;;;;;;3.70;2.50;;;18.40;33.90;;;;;;5141991;27;20906;-63
2022/03/10 12:07:54;;;;;;;2.50;2.40;;;18.40;33.80;;;;;;5138314;27;20439;-63
2022/03/10 12:10:20;;;;;;;2.93;2.73;;;18.40;33.80;;;;;;5143142;27;20461;-64
2022/03/10 12:12:46;;;;;;;3.10;2.50;;;18.40;33.80;;;;;;5142624;27;20439;-63
2022/03/10 12:15:26;;;;;;;2.20;2.10;;;18.40;33.80;;;;;;5148841;27;20455;-64
2022/03/10 12:17:54;;;;;;;2.93;2.70;;;18.40;33.80;;;;;;5136059;27;20820;-63
2022/03/10 12:20:38;;;;;;;2.87;2.60;;;18.40;33.90;;;;;;5138091;27;20447;-63
2022/03/10 12:23:03;;;;;;;2.70;2.50;;;18.40;33.80;;;;;;5141158;27;20414;-63
2022/03/10 12:25:36;;;;;;;2.70;2.50;;;18.40;33.90;;;;;;5145116;27;20410;-63
2022/03/10 12:28:01;;;;;;;2.77;2.57;;;18.40;33.90;;;;;;5146185;27;20246;-64
2022/03/10 12:30:28;;;;;;;3.70;2.60;;;18.40;33.90;;;;;;5145350;27;20450;-63
2022/03/10 12:32:57;;;;;;;3.40;3.10;;;18.40;33.90;;;;;;5142140;27;20716;-64
2022/03/10 12:35:31;;;;;;;2.80;2.60;;;18.40;34.00;;;;;;5142534;27;20455;-63
2022/03/10 12:37:57;;;;;;;2.70;2.50;;;18.40;33.90;;;;;;5145676;27;20435;-64
2022/03/10 12:40:26;;;;;;;3.40;2.90;;;18.40;34.00;;;;;;5143919;27;20432;-64
2022/03/10 12:43:01;;;;;;;2.70;2.50;;;18.40;34.00;;;;;;5146437;27;20211;-64
2022/03/10 12:45:28;;;;;;;3.10;2.87;;;18.40;34.00;;;;;;5137373;27;20413;-64
2022/03/10 12:48:07;;;;;;;5.50;2.40;;;18.40;34.00;;;;;;5141750;27;20418;-64
2022/03/10 12:50:33;;;;;;;3.00;2.80;;;18.40;34.00;;;;;;5142120;27;20489;-64
2022/03/10 12:53:09;;;;;;;2.87;2.67;;;18.40;34.00;;;;;;5142509;27;20433;-63